Time;durP1;ratioP1;P1;durP2;ratioP2;P2;SDS_P1;SDS_P2;PMS_P1;PMS_P2;Temp;Humidity;BMP_temperature;BMP_pressure;BME280_temperature;BME280_humidity;BME280_pressure;Samples;Min_cycle;Max_cycle;Signal;HPM_P1;HPM_P2
2022/03/25 00:00:50;;;;;;;0.10;0.10;;;4.40;1.00;226.50;231333.00;;;;5069433;28;20193;-75
2022/03/25 00:03:19;;;;;;;0.05;0.05;;;4.30;1.00;226.50;231333.00;;;;5063333;28;20283;-75
2022/03/25 00:05:47;;;;;;;0.10;0.10;;;4.20;35.60;226.50;231333.00;;;;5071039;28;20817;-75
2022/03/25 00:08:15;;;;;;;0.03;0.03;;;4.20;99.90;226.50;231333.00;;;;5070846;28;20817;-76
2022/03/25 00:10:44;;;;;;;0.10;0.10;;;4.20;99.90;226.50;231333.00;;;;5070569;28;20552;-75
2022/03/25 00:13:12;;;;;;;0.10;0.10;;;4.20;99.90;226.50;231333.00;;;;5071000;28;20221;-76
2022/03/25 00:15:42;;;;;;;0.10;0.10;;;4.20;99.90;226.50;231333.00;;;;5071606;28;20411;-75
2022/03/25 00:18:10;;;;;;;0.10;0.10;;;4.20;99.90;226.50;231333.00;;;;5070459;28;20212;-74
2022/03/25 00:20:38;;;;;;;0.08;0.08;;;4.30;99.90;226.50;231333.00;;;;5070413;28;20194;-73
2022/03/25 00:23:06;;;;;;;0.00;0.00;;;4.20;99.90;226.50;231333.00;;;;5071796;28;20655;-72
2022/03/25 00:25:35;;;;;;;0.10;0.10;;;4.30;1.00;226.50;231333.00;;;;5075362;28;20205;-73
2022/03/25 00:28:03;;;;;;;0.10;0.10;;;4.30;1.00;226.50;231333.00;;;;5077690;28;20205;-73
2022/03/25 00:30:32;;;;;;;0.10;0.10;;;4.20;1.00;226.50;231333.00;;;;5073084;28;20194;-73
2022/03/25 00:33:02;;;;;;;0.10;0.10;;;4.10;1.00;226.50;231333.00;;;;5061051;28;20222;-72
2022/03/25 00:35:31;;;;;;;0.10;0.10;;;4.10;12.10;226.50;231333.00;;;;5073950;28;20194;-72
2022/03/25 00:38:00;;;;;;;0.10;0.10;;;3.90;99.90;226.50;231333.00;;;;5069402;28;20202;-72
2022/03/25 00:40:32;;;;;;;0.10;0.10;;;3.90;99.90;226.50;231333.00;;;;5075549;28;20182;-72
2022/03/25 00:43:00;;;;;;;0.10;0.10;;;3.80;99.90;226.50;231333.00;;;;5075389;28;20239;-73
2022/03/25 00:45:29;;;;;;;0.10;0.10;;;3.80;99.90;226.50;231333.00;;;;5089720;28;20202;-74
2022/03/25 00:47:57;;;;;;;0.10;0.10;;;3.90;99.90;226.50;231333.00;;;;5095122;28;20763;-73
2022/03/25 00:50:26;;;;;;;0.10;0.10;;;3.90;99.90;226.50;231333.00;;;;5093881;28;20198;-73
2022/03/25 00:52:55;;;;;;;0.10;0.10;;;4.00;99.90;226.50;231333.00;;;;5072639;28;20209;-74
2022/03/25 00:55:23;;;;;;;0.00;0.00;;;4.00;99.90;226.50;231333.00;;;;5091609;28;20204;-75
2022/03/25 00:57:51;;;;;;;0.10;0.10;;;4.00;99.90;226.50;231333.00;;;;5091958;28;20202;-74
2022/03/25 01:00:20;;;;;;;0.10;0.10;;;3.90;99.90;226.50;231333.00;;;;5075102;28;20247;-74
2022/03/25 01:02:48;;;;;;;0.10;0.10;;;3.80;99.90;226.50;231333.00;;;;5078234;28;20244;-74
2022/03/25 01:05:17;;;;;;;0.10;0.10;;;3.70;1.00;226.50;231333.00;;;;5085837;28;20205;-73
2022/03/25 01:07:48;;;;;;;0.10;0.10;;;3.50;1.00;226.50;231333.00;;;;5071301;28;20201;-73
2022/03/25 01:10:16;;;;;;;0.10;0.10;;;3.40;1.00;226.50;231333.00;;;;5078787;28;20273;-73
2022/03/25 01:12:44;;;;;;;0.10;0.10;;;3.50;1.00;226.50;231333.00;;;;5098093;28;20232;-73
2022/03/25 01:15:12;;;;;;;0.10;0.10;;;3.50;1.00;226.50;231333.00;;;;5083420;28;20229;-73
2022/03/25 01:17:41;;;;;;;0.10;0.10;;;3.50;1.00;226.50;231333.00;;;;5077369;28;20558;-72
2022/03/25 01:20:11;;;;;;;0.10;0.10;;;3.50;1.00;226.50;231333.00;;;;5074824;28;20288;-72
2022/03/25 01:22:39;;;;;;;0.10;0.10;;;3.50;1.00;226.50;231333.00;;;;5085199;28;20602;-72
2022/03/25 01:25:09;;;;;;;0.10;0.10;;;3.40;1.00;226.50;231333.00;;;;5092982;28;20198;-73
2022/03/25 01:27:38;;;;;;;0.10;0.10;;;3.40;1.00;226.50;231333.00;;;;5075915;28;20220;-73
2022/03/25 01:30:08;;;;;;;0.10;0.10;;;3.40;1.00;226.50;231333.00;;;;5075584;28;20308;-71
2022/03/25 01:32:37;;;;;;;0.10;0.10;;;3.40;1.00;226.50;231333.00;;;;5073809;28;20221;-73
2022/03/25 01:35:09;;;;;;;0.10;0.10;;;3.40;1.00;226.50;231333.00;;;;5073284;28;20641;-74
2022/03/25 01:37:37;;;;;;;0.10;0.10;;;3.50;1.00;226.50;231333.00;;;;5070669;28;20186;-75
2022/03/25 01:40:09;;;;;;;0.10;0.10;;;3.40;1.00;226.50;231333.00;;;;5070071;28;20224;-72
2022/03/25 01:42:41;;;;;;;0.10;0.10;;;3.30;1.00;226.50;231333.00;;;;5068088;28;20237;-72
2022/03/25 01:45:12;;;;;;;0.10;0.10;;;3.20;1.00;226.50;231333.00;;;;5069294;28;20570;-73
2022/03/25 01:47:41;;;;;;;0.10;0.10;;;3.30;1.00;226.50;231333.00;;;;5073064;28;20186;-74
2022/03/25 01:50:19;;;;;;;0.10;0.10;;;3.30;1.00;226.50;231333.00;;;;5069975;28;20190;-73
2022/03/25 01:52:51;;;;;;;0.10;0.10;;;3.30;1.00;226.50;231333.00;;;;5073346;28;20300;-72
2022/03/25 01:55:26;;;;;;;0.10;0.10;;;3.20;1.00;226.50;231333.00;;;;5071364;28;20224;-71
2022/03/25 01:57:58;;;;;;;0.10;0.10;;;3.20;1.00;226.50;231333.00;;;;5072135;28;20188;-71
2022/03/25 02:00:29;;;;;;;0.10;0.10;;;3.10;1.00;226.50;231333.00;;;;5089427;28;20197;-71
2022/03/25 02:02:57;;;;;;;0.10;0.10;;;3.10;1.00;226.50;231333.00;;;;5067960;28;20237;-70
2022/03/25 02:05:26;;;;;;;0.10;0.10;;;3.10;1.00;226.50;231333.00;;;;5071200;28;20202;-73
2022/03/25 02:07:55;;;;;;;0.10;0.10;;;3.10;1.00;226.50;231333.00;;;;5071397;28;20276;-72
2022/03/25 02:10:24;;;;;;;0.10;0.10;;;3.10;1.00;226.50;231333.00;;;;5087752;28;20196;-72
2022/03/25 02:12:52;;;;;;;0.05;0.05;;;2.90;1.00;226.50;231333.00;;;;5072892;28;20209;-72
2022/03/25 02:15:33;;;;;;;0.10;0.10;;;2.90;1.00;226.50;231333.00;;;;5072875;28;20289;-72
2022/03/25 02:18:11;;;;;;;0.10;0.10;;;3.10;1.00;226.50;231333.00;;;;5069353;28;20197;-72
2022/03/25 02:20:40;;;;;;;0.10;0.10;;;3.00;1.00;226.50;231333.00;;;;5086958;28;20209;-72
2022/03/25 02:23:14;;;;;;;0.05;0.05;;;3.00;1.00;226.50;231333.00;;;;5070437;28;20267;-72
2022/03/25 02:25:44;;;;;;;0.15;0.15;;;3.00;1.00;226.50;231333.00;;;;5068487;28;20196;-72
2022/03/25 02:28:13;;;;;;;0.00;0.00;;;2.90;1.00;226.50;231333.00;;;;5070054;28;20197;-72
2022/03/25 02:30:46;;;;;;;0.10;0.10;;;2.90;1.00;226.50;231333.00;;;;5069801;28;20190;-71
2022/03/25 02:33:14;;;;;;;0.10;0.10;;;2.90;6.70;226.50;231333.00;;;;5069625;28;20335;-71
2022/03/25 02:35:45;;;;;;;0.10;0.10;;;2.90;7.90;226.50;231333.00;;;;5070878;28;20226;-72
2022/03/25 02:38:17;;;;;;;0.10;0.10;;;2.90;1.00;226.50;231333.00;;;;5068229;28;20190;-72
2022/03/25 02:40:47;;;;;;;0.10;0.10;;;2.80;1.00;226.50;231333.00;;;;5069143;28;20201;-72
2022/03/25 02:43:16;;;;;;;0.10;0.10;;;2.70;43.30;226.50;231333.00;;;;5083410;28;20561;-71
2022/03/25 02:45:49;;;;;;;0.10;0.10;;;2.60;99.90;226.50;231333.00;;;;5068119;28;20197;-70
2022/03/25 02:48:18;;;;;;;0.10;0.10;;;2.40;99.90;226.50;231333.00;;;;5068947;28;20190;-71
2022/03/25 02:50:46;;;;;;;0.10;0.10;;;2.20;99.90;226.50;231333.00;;;;5063991;28;20578;-70
2022/03/25 02:53:16;;;;;;;0.00;0.00;;;2.20;99.90;226.50;231333.00;;;;5069893;28;20209;-70
2022/03/25 02:55:44;;;;;;;0.20;0.20;;;2.20;99.90;226.50;231333.00;;;;5070339;28;20313;-70
2022/03/25 02:58:13;;;;;;;0.10;0.10;;;2.30;99.90;226.50;231333.00;;;;5069528;28;20194;-70
2022/03/25 03:00:42;;;;;;;0.10;0.10;;;2.20;99.90;226.50;231333.00;;;;5069614;28;20189;-70
2022/03/25 03:03:10;;;;;;;0.10;0.10;;;2.20;1.00;226.50;231333.00;;;;5069490;28;20588;-71
2022/03/25 03:05:38;;;;;;;0.10;0.10;;;2.30;1.00;226.50;231333.00;;;;5069286;28;20663;-70
2022/03/25 03:08:07;;;;;;;0.10;0.10;;;2.30;99.90;226.50;231333.00;;;;5069705;28;20247;-70
2022/03/25 03:10:37;;;;;;;0.10;0.10;;;2.20;99.90;226.50;231333.00;;;;5066641;28;20697;-70
2022/03/25 03:13:06;;;;;;;0.10;0.10;;;2.20;1.00;226.50;231333.00;;;;5069816;28;20748;-70
2022/03/25 03:15:35;;;;;;;0.10;0.10;;;2.20;1.00;226.50;231333.00;;;;5069924;28;20221;-69
2022/03/25 03:18:03;;;;;;;0.10;0.10;;;2.30;99.90;226.50;231333.00;;;;5069902;28;20711;-70
2022/03/25 03:20:32;;;;;;;0.10;0.10;;;2.20;1.00;226.50;231333.00;;;;5070014;28;20215;-70
2022/03/25 03:23:00;;;;;;;0.10;0.10;;;2.30;99.90;226.50;231333.00;;;;5068879;28;20665;-71
2022/03/25 03:25:28;;;;;;;0.10;0.10;;;2.30;99.90;226.50;231333.00;;;;5070205;28;20259;-70
2022/03/25 03:27:57;;;;;;;0.10;0.10;;;2.40;99.90;226.50;231333.00;;;;5069576;28;20223;-70
2022/03/25 03:30:25;;;;;;;0.10;0.10;;;2.30;99.90;226.50;231333.00;;;;5070127;28;20194;-70
2022/03/25 03:32:57;;;;;;;0.10;0.10;;;2.30;99.90;226.50;231333.00;;;;5070060;28;20213;-70
2022/03/25 03:35:27;;;;;;;0.10;0.10;;;2.20;99.90;226.50;231333.00;;;;5066444;28;20221;-71
2022/03/25 03:37:56;;;;;;;0.10;0.10;;;2.20;99.90;226.50;231333.00;;;;5069849;28;20201;-71
2022/03/25 03:40:25;;;;;;;0.10;0.10;;;2.30;99.90;226.50;231333.00;;;;5069436;28;20190;-71
2022/03/25 03:42:53;;;;;;;0.20;0.20;;;2.20;99.90;226.50;231333.00;;;;5069920;28;20217;-70
2022/03/25 03:45:23;;;;;;;0.00;0.00;;;2.20;99.90;226.50;231333.00;;;;5069697;28;20270;-70
2022/03/25 03:47:51;;;;;;;0.10;0.10;;;2.20;99.90;226.50;231333.00;;;;5070410;28;20597;-71
2022/03/25 03:50:20;;;;;;;0.10;0.10;;;2.10;99.90;226.50;231333.00;;;;5069560;28;20193;-70
2022/03/25 03:52:48;;;;;;;0.10;0.10;;;2.20;99.90;226.50;231333.00;;;;5070041;28;20217;-70
2022/03/25 03:55:18;;;;;;;0.10;0.10;;;2.10;99.90;226.50;231333.00;;;;5069769;28;20751;-70
2022/03/25 03:57:45;;;;;;;0.10;0.10;;;1.90;1.00;226.50;231333.00;;;;5069786;28;20198;-69
2022/03/25 04:00:15;;;;;;;0.10;0.10;;;1.80;1.00;226.50;231333.00;;;;5069761;28;20509;-70
2022/03/25 04:02:45;;;;;;;0.10;0.10;;;1.80;1.00;226.50;231333.00;;;;5064431;28;20629;-70
2022/03/25 04:05:14;;;;;;;0.10;0.10;;;1.80;1.00;226.50;231333.00;;;;5070936;28;20213;-70
2022/03/25 04:07:44;;;;;;;0.10;0.10;;;1.70;1.00;226.50;231333.00;;;;5074423;28;20243;-70
2022/03/25 04:10:13;;;;;;;0.10;0.10;;;1.70;1.00;226.50;231333.00;;;;5077167;28;20659;-71
2022/03/25 04:12:41;;;;;;;0.17;0.17;;;1.80;1.00;226.50;231333.00;;;;5078347;28;20430;-71
2022/03/25 04:15:12;;;;;;;0.10;0.10;;;1.90;1.00;226.50;231333.00;;;;5078950;28;20456;-71
2022/03/25 04:17:44;;;;;;;0.10;0.10;;;1.90;1.00;226.50;231333.00;;;;5073958;28;20233;-71
2022/03/25 04:20:15;;;;;;;0.10;0.10;;;2.10;1.00;226.50;231333.00;;;;5077052;28;20722;-71
2022/03/25 04:22:43;;;;;;;0.10;0.10;;;1.90;1.00;226.50;231333.00;;;;5067587;28;20744;-70
2022/03/25 04:25:11;;;;;;;0.10;0.10;;;1.90;1.00;226.50;231333.00;;;;5073335;28;20189;-71
2022/03/25 04:27:52;;;;;;;0.10;0.10;;;1.90;1.00;226.50;231333.00;;;;5072445;28;20239;-70
2022/03/25 04:30:22;;;;;;;0.10;0.10;;;1.80;1.00;226.50;231333.00;;;;5071610;28;20259;-71
2022/03/25 04:32:52;;;;;;;0.10;0.10;;;1.80;1.00;226.50;231333.00;;;;5066239;28;20255;-71
2022/03/25 04:35:21;;;;;;;0.10;0.10;;;1.80;1.00;226.50;231333.00;;;;5072755;28;20774;-70
2022/03/25 04:37:49;;;;;;;0.10;0.10;;;1.70;1.00;226.50;231333.00;;;;5072190;28;20197;-73
2022/03/25 04:40:20;;;;;;;0.17;0.17;;;1.70;1.00;226.50;231333.00;;;;5072829;28;20190;-74
2022/03/25 04:42:49;;;;;;;0.10;0.10;;;1.70;1.00;226.50;231333.00;;;;5072065;28;20221;-71
2022/03/25 04:45:19;;;;;;;0.10;0.10;;;1.60;1.00;226.50;231333.00;;;;5072655;28;20198;-72
2022/03/25 04:47:47;;;;;;;0.10;0.10;;;1.60;1.00;226.50;231333.00;;;;5071876;28;20247;-71
2022/03/25 04:50:17;;;;;;;0.10;0.10;;;1.50;1.00;226.50;231333.00;;;;5072692;28;20202;-72
2022/03/25 04:52:46;;;;;;;0.10;0.10;;;1.40;1.00;226.50;231333.00;;;;5074198;28;20213;-71
2022/03/25 04:55:17;;;;;;;0.10;0.10;;;1.40;1.00;226.50;231333.00;;;;5065206;28;20190;-72
2022/03/25 04:57:46;;;;;;;0.15;0.15;;;1.40;1.00;226.50;231333.00;;;;5071091;28;20232;-73
2022/03/25 05:00:16;;;;;;;0.10;0.10;;;1.30;1.00;226.50;231333.00;;;;5072571;28;20273;-72
2022/03/25 05:02:44;;;;;;;0.10;0.10;;;1.20;1.00;226.50;231333.00;;;;5068209;28;20612;-72
2022/03/25 05:05:13;;;;;;;0.20;0.20;;;1.20;1.00;226.50;231333.00;;;;5071952;28;20189;-74
2022/03/25 05:07:44;;;;;;;0.10;0.10;;;1.20;1.00;226.50;231333.00;;;;5072869;28;20253;-74
2022/03/25 05:10:13;;;;;;;0.13;0.13;;;1.30;1.00;226.50;231333.00;;;;5072513;28;20197;-71
2022/03/25 05:12:42;;;;;;;0.10;0.10;;;1.20;1.00;226.50;231333.00;;;;5071835;28;20201;-73
2022/03/25 05:15:12;;;;;;;0.10;0.10;;;1.20;1.00;226.50;231333.00;;;;5071474;28;20694;-72
2022/03/25 05:17:46;;;;;;;0.10;0.10;;;1.20;1.00;226.50;231333.00;;;;5071960;28;20221;-72
2022/03/25 05:20:17;;;;;;;0.10;0.10;;;1.20;1.00;226.50;231333.00;;;;5060984;28;20208;-70
2022/03/25 05:22:47;;;;;;;0.20;0.20;;;1.30;1.00;226.50;231333.00;;;;5069796;28;20254;-70
2022/03/25 05:25:16;;;;;;;0.10;0.10;;;1.30;1.00;226.50;231333.00;;;;5071751;28;20246;-71
2022/03/25 05:27:46;;;;;;;0.10;0.10;;;1.30;1.00;226.50;231333.00;;;;5070952;28;20198;-70
2022/03/25 05:30:16;;;;;;;0.20;0.20;;;1.30;1.00;226.50;231333.00;;;;5072020;28;20651;-70
2022/03/25 05:32:44;;;;;;;0.20;0.20;;;1.40;1.00;226.50;231333.00;;;;5071202;28;20222;-71
2022/03/25 05:35:18;;;;;;;0.13;0.13;;;1.50;1.00;226.50;231333.00;;;;5069513;28;20262;-71
2022/03/25 05:37:49;;;;;;;0.20;0.20;;;1.40;1.00;226.50;231333.00;;;;5068388;28;20283;-71
2022/03/25 05:40:20;;;;;;;0.20;0.20;;;1.40;1.00;226.50;231333.00;;;;5068621;28;20248;-71
2022/03/25 05:42:50;;;;;;;0.10;0.10;;;1.50;1.00;226.50;231333.00;;;;5071829;28;20218;-71
2022/03/25 05:45:20;;;;;;;0.10;0.10;;;1.50;1.00;226.50;231333.00;;;;5069840;28;20979;-73
2022/03/25 05:47:49;;;;;;;0.10;0.10;;;1.20;1.00;226.50;231333.00;;;;5071841;28;20658;-71
2022/03/25 05:50:18;;;;;;;0.10;0.10;;;1.20;1.00;226.50;231333.00;;;;5070193;28;20678;-71
2022/03/25 05:52:48;;;;;;;0.10;0.10;;;1.20;1.00;226.50;231333.00;;;;5071480;28;20248;-71
2022/03/25 05:55:18;;;;;;;0.10;0.10;;;1.20;1.00;226.50;231333.00;;;;5071128;28;20197;-71
2022/03/25 05:57:46;;;;;;;0.20;0.20;;;1.30;1.00;226.50;231333.00;;;;5071084;28;20225;-71
2022/03/25 06:00:16;;;;;;;0.20;0.20;;;1.40;1.00;226.50;231333.00;;;;5071036;28;20212;-71
2022/03/25 06:02:46;;;;;;;0.10;0.10;;;1.50;1.00;226.50;231333.00;;;;5064506;28;20214;-71
2022/03/25 06:05:15;;;;;;;0.20;0.20;;;1.70;1.00;226.50;231333.00;;;;5071007;28;20244;-71
2022/03/25 06:07:45;;;;;;;0.10;0.10;;;1.70;1.00;226.50;231333.00;;;;5064380;28;20276;-72
2022/03/25 06:10:16;;;;;;;0.20;0.20;;;1.80;1.00;226.50;231333.00;;;;5061342;28;20201;-74
2022/03/25 06:12:44;;;;;;;0.10;0.10;;;1.70;1.00;226.50;231333.00;;;;5069957;28;20221;-73
2022/03/25 06:15:12;;;;;;;0.10;0.10;;;1.80;1.00;226.50;231333.00;;;;5069771;28;20667;-71
2022/03/25 06:17:45;;;;;;;0.10;0.10;;;1.80;1.00;226.50;231333.00;;;;5070518;28;20706;-72
2022/03/25 06:20:17;;;;;;;0.10;0.10;;;1.80;1.00;226.50;231333.00;;;;5070373;28;20655;-72
2022/03/25 06:22:47;;;;;;;0.10;0.10;;;1.90;1.00;226.50;231333.00;;;;5070579;28;20267;-72
2022/03/25 06:25:18;;;;;;;0.10;0.10;;;2.00;1.00;226.50;231333.00;;;;5070689;28;20202;-73
2022/03/25 06:27:48;;;;;;;0.00;0.00;;;2.00;1.00;226.50;231333.00;;;;5063217;28;20197;-73
2022/03/25 06:30:16;;;;;;;0.17;0.17;;;2.10;1.00;226.50;231333.00;;;;5070877;28;20236;-73
2022/03/25 06:32:45;;;;;;;0.10;0.10;;;2.20;1.00;226.50;231333.00;;;;5069619;28;20237;-73
2022/03/25 06:35:13;;;;;;;0.20;0.20;;;2.20;1.00;226.50;231333.00;;;;5068547;28;20243;-73
2022/03/25 06:37:41;;;;;;;0.13;0.13;;;2.30;1.00;226.50;231333.00;;;;5070461;28;20221;-72
2022/03/25 06:40:12;;;;;;;0.10;0.10;;;2.30;99.90;226.50;231333.00;;;;5070471;28;20248;-72
2022/03/25 06:42:43;;;;;;;0.10;0.10;;;2.40;99.90;226.50;231333.00;;;;5065751;28;20225;-73
2022/03/25 06:45:15;;;;;;;0.10;0.10;;;2.50;99.90;226.50;231333.00;;;;5068332;28;20185;-72
2022/03/25 06:47:43;;;;;;;0.17;0.17;;;2.50;99.90;226.50;231333.00;;;;5070669;28;20197;-73
2022/03/25 06:50:15;;;;;;;0.10;0.10;;;2.50;99.90;226.50;231333.00;;;;5070043;28;20190;-73
2022/03/25 06:52:44;;;;;;;0.10;0.10;;;2.70;99.90;226.50;231333.00;;;;5064938;28;20229;-73
2022/03/25 06:55:14;;;;;;;0.10;0.10;;;2.80;99.90;226.50;231333.00;;;;5068505;28;20189;-73
2022/03/25 06:57:50;;;;;;;0.10;0.10;;;2.80;99.90;226.50;231333.00;;;;5069969;28;20577;-73
2022/03/25 07:00:21;;;;;;;0.10;0.10;;;2.90;99.90;226.50;231333.00;;;;5065242;28;20248;-73
2022/03/25 07:02:51;;;;;;;0.10;0.10;;;3.00;99.90;226.50;231333.00;;;;5065728;28;20224;-73
2022/03/25 07:05:21;;;;;;;0.10;0.10;;;3.10;99.90;226.50;231333.00;;;;5070685;28;20542;-73
2022/03/25 07:07:50;;;;;;;0.10;0.10;;;3.20;99.90;226.50;231333.00;;;;5070149;28;20709;-73
2022/03/25 07:10:23;;;;;;;0.10;0.10;;;3.20;99.90;226.50;231333.00;;;;5068771;28;20197;-73
2022/03/25 07:12:54;;;;;;;0.10;0.10;;;3.20;99.90;226.50;231333.00;;;;5072138;28;20218;-73
2022/03/25 07:15:23;;;;;;;0.10;0.10;;;3.40;99.90;226.50;231333.00;;;;5069914;28;20201;-74
2022/03/25 07:17:52;;;;;;;0.10;0.10;;;3.30;99.90;226.50;231333.00;;;;5070440;28;20711;-73
2022/03/25 07:20:22;;;;;;;0.10;0.10;;;3.40;99.90;226.50;231333.00;;;;5071777;28;20537;-75
2022/03/25 07:22:53;;;;;;;0.15;0.15;;;3.50;99.90;226.50;231333.00;;;;5071239;28;20213;-74
2022/03/25 07:25:21;;;;;;;0.10;0.10;;;3.60;99.90;226.50;231333.00;;;;5070862;28;20772;-74
2022/03/25 07:27:51;;;;;;;0.10;0.10;;;3.60;99.90;226.50;231333.00;;;;5069718;28;20201;-73
2022/03/25 07:30:20;;;;;;;0.10;0.10;;;3.70;99.90;226.50;231333.00;;;;5071452;28;20228;-73
2022/03/25 07:32:48;;;;;;;0.10;0.10;;;3.90;60.20;226.50;231333.00;;;;5070603;28;20267;-73
2022/03/25 07:35:17;;;;;;;0.10;0.10;;;4.00;1.00;226.50;231333.00;;;;5069562;28;20186;-73
2022/03/25 07:37:46;;;;;;;0.10;0.10;;;4.10;1.00;226.50;231333.00;;;;5070288;28;20217;-73
2022/03/25 07:40:15;;;;;;;0.10;0.10;;;4.20;1.00;226.50;231333.00;;;;5070647;28;20233;-73
2022/03/25 07:42:45;;;;;;;0.10;0.10;;;4.40;1.00;226.50;231333.00;;;;5072131;28;20213;-73
2022/03/25 07:45:15;;;;;;;0.10;0.10;;;4.50;1.00;226.50;231333.00;;;;5073723;28;20258;-73
2022/03/25 07:47:46;;;;;;;0.13;0.13;;;4.60;1.00;226.50;231333.00;;;;5074018;28;20550;-73
2022/03/25 07:50:18;;;;;;;0.10;0.10;;;4.60;1.00;226.50;231333.00;;;;5071198;28;20247;-74
2022/03/25 07:52:47;;;;;;;0.10;0.10;;;4.70;1.00;226.50;231333.00;;;;5073374;28;20332;-73
2022/03/25 07:55:18;;;;;;;0.10;0.10;;;4.90;1.00;226.50;231333.00;;;;5073577;28;20186;-74
2022/03/25 07:57:47;;;;;;;0.10;0.10;;;5.00;99.90;226.50;231333.00;;;;5072448;28;20582;-74
2022/03/25 08:00:18;;;;;;;0.10;0.10;;;5.10;99.90;226.50;231333.00;;;;5073872;28;20194;-73
2022/03/25 08:02:48;;;;;;;0.05;0.05;;;5.20;99.90;226.50;231333.00;;;;5065845;28;20210;-73
2022/03/25 08:05:17;;;;;;;0.08;0.08;;;5.30;99.90;226.50;231333.00;;;;5069402;28;20220;-73
2022/03/25 08:07:48;;;;;;;0.00;0.00;;;5.50;1.00;226.50;231333.00;;;;5073408;28;20205;-73
2022/03/25 08:10:20;;;;;;;0.10;0.10;;;5.60;1.00;226.50;231333.00;;;;5074021;28;20213;-74
2022/03/25 08:12:49;;;;;;;0.03;0.03;;;5.70;1.00;226.50;231333.00;;;;5075256;28;20267;-73
2022/03/25 08:15:20;;;;;;;0.10;0.10;;;5.80;1.00;226.50;231333.00;;;;5060602;28;20265;-74
2022/03/25 08:17:51;;;;;;;0.10;0.10;;;5.90;99.90;226.50;231333.00;;;;5077230;28;20259;-77
2022/03/25 08:20:25;;;;;;;0.10;0.10;;;6.00;99.90;226.50;231333.00;;;;5068401;28;20193;-74
2022/03/25 08:22:56;;;;;;;0.10;0.10;;;6.20;1.00;226.50;231333.00;;;;5073641;28;20246;-74
2022/03/25 08:28:11;;;;;;;0.10;0.10;;;6.50;1.00;226.50;231333.00;;;;5073708;28;20296;-73
2022/03/25 08:30:41;;;;;;;0.00;0.00;;;6.70;1.00;226.50;231333.00;;;;5068224;28;20195;-73
2022/03/25 08:33:10;;;;;;;0.10;0.10;;;6.80;1.00;226.50;231333.00;;;;5071638;28;20267;-73
2022/03/25 08:35:40;;;;;;;0.10;0.10;;;7.00;99.90;226.50;231333.00;;;;5074701;28;20201;-73
2022/03/25 08:38:10;;;;;;;0.10;0.10;;;7.20;99.90;226.50;231333.00;;;;5072946;28;20214;-74
2022/03/25 08:40:40;;;;;;;0.10;0.10;;;7.40;1.00;226.50;231333.00;;;;5074039;28;20280;-75
2022/03/25 08:43:29;;;;;;;0.10;0.10;;;7.50;99.90;226.50;231333.00;;;;5069194;28;20237;-75
2022/03/25 08:45:58;;;;;;;0.10;0.10;;;7.70;1.00;226.50;231333.00;;;;5075455;28;20255;-77
2022/03/25 08:48:27;;;;;;;0.10;0.10;;;7.80;1.00;226.50;231333.00;;;;5078986;28;20280;-74
2022/03/25 08:50:55;;;;;;;0.10;0.10;;;7.90;99.90;226.50;231333.00;;;;5069924;28;20255;-74
2022/03/25 08:53:23;;;;;;;0.00;0.00;;;8.10;1.00;226.50;231333.00;;;;5072907;28;20213;-74
2022/03/25 08:55:51;;;;;;;0.10;0.10;;;8.20;1.00;226.50;231333.00;;;;5066326;28;20613;-74
2022/03/25 08:58:19;;;;;;;0.10;0.10;;;8.30;99.90;226.50;231333.00;;;;5073118;28;20278;-75
2022/03/25 09:00:47;;;;;;;0.10;0.10;;;8.40;99.90;226.50;231333.00;;;;5071057;28;20223;-77
2022/03/25 09:03:17;;;;;;;0.10;0.10;;;8.60;1.00;226.50;231333.00;;;;5072429;28;20213;-74
2022/03/25 09:05:45;;;;;;;0.00;0.00;;;8.70;1.00;226.50;231333.00;;;;5071507;28;20280;-75
2022/03/25 09:08:13;;;;;;;0.05;0.05;;;8.90;1.00;226.50;231333.00;;;;5066914;28;20206;-74
2022/03/25 09:10:41;;;;;;;0.10;0.10;;;9.00;1.00;226.50;231333.00;;;;5072574;28;20239;-75
2022/03/25 09:13:09;;;;;;;0.10;0.10;;;9.10;99.90;226.50;231333.00;;;;5068206;28;20214;-75
2022/03/25 09:15:37;;;;;;;0.03;0.03;;;9.30;1.00;226.50;231333.00;;;;5065359;28;20236;-74
2022/03/25 09:18:06;;;;;;;0.10;0.10;;;9.50;1.00;226.50;231333.00;;;;5066250;28;20263;-74
2022/03/25 09:20:37;;;;;;;0.10;0.10;;;9.70;1.00;226.50;231333.00;;;;5076174;28;20285;-75
2022/03/25 09:23:05;;;;;;;0.03;0.03;;;9.80;1.00;226.50;231333.00;;;;5074301;28;20719;-75
2022/03/25 09:25:34;;;;;;;0.10;0.10;;;10.00;1.00;226.50;231333.00;;;;5067718;28;20201;-75
2022/03/25 09:28:02;;;;;;;0.10;0.10;;;10.10;1.00;226.50;231333.00;;;;5068761;28;20713;-75
2022/03/25 09:30:30;;;;;;;0.10;0.10;;;10.20;99.90;226.50;231333.00;;;;5077643;28;20194;-75
2022/03/25 09:33:06;;;;;;;0.10;0.10;;;10.30;99.90;226.50;231333.00;;;;5079949;28;20400;-77
2022/03/25 09:35:37;;;;;;;0.00;0.00;;;10.40;99.90;226.50;231333.00;;;;5079754;28;20255;-75
2022/03/25 09:38:06;;;;;;;0.10;0.10;;;10.60;99.90;226.50;231333.00;;;;5081256;28;20243;-75
2022/03/25 09:40:35;;;;;;;0.10;0.10;;;10.70;99.90;226.50;231333.00;;;;5083010;28;20291;-75
2022/03/25 09:43:04;;;;;;;0.10;0.10;;;10.80;99.90;226.50;231333.00;;;;5073597;28;20282;-75
2022/03/25 09:45:35;;;;;;;0.10;0.10;;;10.90;99.90;226.50;231333.00;;;;5073449;28;20198;-77
2022/03/25 09:48:05;;;;;;;0.00;0.00;;;11.10;99.90;226.50;231333.00;;;;5096788;28;20225;-75
2022/03/25 09:50:36;;;;;;;0.10;0.10;;;11.20;78.50;226.50;231333.00;;;;5074312;28;20275;-75
2022/03/25 09:53:08;;;;;;;0.10;0.10;;;11.30;72.60;226.50;231333.00;;;;5074194;28;20224;-75
2022/03/25 09:55:42;;;;;;;0.10;0.10;;;11.40;56.80;226.50;231333.00;;;;5072567;28;20204;-75
2022/03/25 09:58:18;;;;;;;0.10;0.10;;;11.60;40.70;226.50;231333.00;;;;5072371;28;20190;-79
2022/03/25 10:00:50;;;;;;;0.10;0.10;;;11.70;32.40;226.50;231333.00;;;;5070611;28;20190;-74
2022/03/25 10:03:27;;;;;;;0.10;0.10;;;11.80;19.50;226.50;231333.00;;;;5088722;28;20260;-75
2022/03/25 10:05:58;;;;;;;0.10;0.10;;;11.90;4.80;226.50;231333.00;;;;5073410;28;20201;-75
2022/03/25 10:08:43;;;;;;;0.10;0.10;;;12.10;2.30;226.50;231333.00;;;;5066885;28;20556;-74
2022/03/25 10:11:23;;;;;;;0.10;0.10;;;12.20;1.00;226.50;231333.00;;;;5066425;28;20197;-75
2022/03/25 10:14:14;;;;;;;0.10;0.10;;;12.30;1.00;226.50;231333.00;;;;5068006;28;20213;-75
2022/03/25 10:16:45;;;;;;;0.10;0.10;;;12.40;1.00;226.50;231333.00;;;;5076354;28;20197;-75
2022/03/25 10:19:17;;;;;;;0.10;0.10;;;12.50;1.00;226.50;231333.00;;;;5078069;28;20581;-75
2022/03/25 10:21:54;;;;;;;0.10;0.10;;;12.60;1.00;226.50;231333.00;;;;5079013;28;20275;-75
2022/03/25 10:24:41;;;;;;;0.10;0.10;;;12.60;1.00;226.50;231333.00;;;;5078555;28;20200;-75
2022/03/25 10:27:22;;;;;;;0.10;0.10;;;12.70;1.00;226.50;231333.00;;;;5070753;28;20257;-75
2022/03/25 10:29:54;;;;;;;0.10;0.10;;;12.80;1.00;226.50;231333.00;;;;5069120;28;20574;-75
2022/03/25 10:32:26;;;;;;;0.10;0.10;;;12.90;1.00;226.50;231333.00;;;;5071041;28;20275;-75
2022/03/25 10:35:06;;;;;;;0.10;0.10;;;12.90;1.00;226.50;231333.00;;;;5072541;28;20212;-75
2022/03/25 10:37:35;;;;;;;0.10;0.10;;;13.10;1.00;226.50;231333.00;;;;5072635;28;20208;-75
2022/03/25 10:40:08;;;;;;;0.10;0.10;;;13.10;1.00;226.50;231333.00;;;;5072898;28;20228;-75
2022/03/25 10:42:36;;;;;;;0.10;0.10;;;13.20;1.00;226.50;231333.00;;;;5065976;28;20233;-76
2022/03/25 10:45:26;;;;;;;0.00;0.00;;;13.40;1.00;226.50;231333.00;;;;5072070;28;20190;-75
2022/03/25 10:48:15;;;;;;;0.00;0.00;;;13.60;1.00;226.50;231333.00;;;;5071855;28;20201;-75
2022/03/25 10:51:04;;;;;;;0.00;0.00;;;13.90;1.00;226.50;231333.00;;;;5071931;28;20285;-75
2022/03/25 10:53:35;;;;;;;0.00;0.00;;;14.10;1.00;226.50;231333.00;;;;5072227;28;20255;-75
2022/03/25 10:56:07;;;;;;;0.10;0.10;;;14.10;1.00;226.50;231333.00;;;;5072571;28;20193;-75
2022/03/25 10:58:36;;;;;;;0.00;0.00;;;14.20;1.00;226.50;231333.00;;;;5072170;28;20626;-75
2022/03/25 11:01:06;;;;;;;0.10;0.10;;;14.20;1.00;226.50;231333.00;;;;5072010;28;20516;-75
2022/03/25 11:03:35;;;;;;;0.00;0.00;;;14.40;1.00;226.50;231333.00;;;;5067511;28;20236;-75
2022/03/25 11:06:05;;;;;;;0.10;0.10;;;14.50;1.00;226.50;231333.00;;;;5071794;28;20299;-75